createdAt,value
2022-09-23T00:00:42.249Z,5.8
2022-09-23T00:05:47.331Z,5.7
2022-09-23T00:10:53.424Z,5.6
2022-09-23T00:15:58.547Z,5.5
2022-09-23T00:21:03.664Z,5.3
2022-09-23T00:26:09.752Z,5.3
2022-09-23T00:31:15.832Z,5.2
2022-09-23T00:36:21.939Z,5.2
2022-09-23T00:41:28.106Z,5.3
2022-09-23T00:46:34.137Z,5.3
2022-09-23T00:51:40.277Z,5.3
2022-09-23T00:56:46.340Z,5.3
2022-09-23T01:01:52.458Z,5.3
2022-09-23T01:06:58.499Z,5.3
2022-09-23T01:12:04.595Z,5.2
2022-09-23T01:17:10.729Z,5.1
2022-09-23T01:22:16.801Z,5
2022-09-23T01:27:21.918Z,5
2022-09-23T01:32:28.026Z,4.9
2022-09-23T01:37:34.098Z,4.8
2022-09-23T01:42:40.212Z,4.8
2022-09-23T01:47:46.344Z,4.8
2022-09-23T01:52:52.374Z,4.8
2022-09-23T01:57:58.509Z,4.8
2022-09-23T02:03:03.602Z,4.7
2022-09-23T02:08:08.726Z,4.6
2022-09-23T02:13:14.810Z,4.6
2022-09-23T02:18:20.922Z,4.7
2022-09-23T02:23:27.099Z,4.7
2022-09-23T02:28:33.146Z,4.8
2022-09-23T02:33:39.242Z,4.8
2022-09-23T02:38:45.357Z,4.8
2022-09-23T02:43:51.397Z,4.7
2022-09-23T02:48:57.497Z,4.7
2022-09-23T02:54:03.591Z,4.9
2022-09-23T02:59:09.674Z,5.1
2022-09-23T03:04:15.787Z,5
2022-09-23T03:09:21.905Z,4.8
2022-09-23T03:14:27.034Z,4.7
2022-09-23T03:19:33.120Z,4.7
2022-09-23T03:24:39.206Z,4.7
2022-09-23T03:29:45.285Z,4.8
2022-09-23T03:34:51.429Z,4.6
2022-09-23T03:39:57.510Z,4.6
2022-09-23T03:45:03.580Z,4.4
2022-09-23T03:50:08.705Z,4.3
2022-09-23T03:55:13.818Z,4.3
2022-09-23T04:00:18.946Z,4.3
2022-09-23T04:05:24.051Z,4.3
2022-09-23T04:10:29.211Z,4.4
2022-09-23T04:15:34.285Z,4.4
2022-09-23T04:20:40.405Z,4.5
2022-09-23T04:25:46.494Z,4.6
2022-09-23T04:30:52.594Z,4.6
2022-09-23T04:35:58.686Z,4.7
2022-09-23T04:41:04.772Z,4.6
2022-09-23T04:46:10.890Z,4.6
2022-09-23T04:51:16.987Z,4.5
2022-09-23T04:56:23.069Z,4.4
2022-09-23T05:01:29.183Z,4.4
2022-09-23T05:06:35.271Z,4.4
2022-09-23T05:11:41.433Z,4.5
2022-09-23T05:16:47.500Z,4.6
2022-09-23T05:21:52.582Z,4.7
2022-09-23T05:26:58.678Z,4.8
2022-09-23T05:32:04.791Z,4.8
2022-09-23T05:37:10.944Z,4.9
2022-09-23T05:42:16.982Z,5
2022-09-23T05:47:23.083Z,5.2
2022-09-23T05:52:29.198Z,5.3
2022-09-23T05:57:34.362Z,5.4
2022-09-23T06:02:39.414Z,5.5
2022-09-23T06:07:44.529Z,5.6
2022-09-23T06:12:49.658Z,5.8
2022-09-23T06:17:55.713Z,6
2022-09-23T06:23:01.917Z,6.3
2022-09-23T06:28:07.906Z,6.6
2022-09-23T06:33:14.057Z,6.8
2022-09-23T06:38:20.097Z,7
2022-09-23T06:43:26.227Z,7.2
2022-09-23T06:48:32.308Z,7.5
2022-09-23T06:53:38.406Z,7.6
2022-09-23T06:58:44.491Z,8
2022-09-23T07:03:50.584Z,8.2
2022-09-23T07:08:56.681Z,8.4
2022-09-23T07:14:02.785Z,8.6
2022-09-23T07:19:07.896Z,8.9
2022-09-23T07:24:13.984Z,9.1
2022-09-23T07:29:20.079Z,9.3
2022-09-23T07:34:26.189Z,9.6
2022-09-23T07:39:32.277Z,9.9
2022-09-23T07:44:38.376Z,10.2
2022-09-23T07:49:44.473Z,10.5
2022-09-23T07:54:49.585Z,10.7
2022-09-23T07:59:54.694Z,11.3
2022-09-23T08:05:00.779Z,12.2
2022-09-23T08:10:05.899Z,13.6
2022-09-23T08:15:11.019Z,14.8
2022-09-23T08:20:17.107Z,15.1
2022-09-23T08:25:23.212Z,15.7
2022-09-23T08:30:29.303Z,15.7
2022-09-23T08:35:35.387Z,15.9
2022-09-23T08:40:41.480Z,16.2
2022-09-23T08:45:47.597Z,15.8
2022-09-23T08:50:53.690Z,15.9
2022-09-23T08:55:59.767Z,16.3
2022-09-23T09:01:05.873Z,17.1
2022-09-23T09:06:11.966Z,17.9
2022-09-23T09:11:18.051Z,18.2
2022-09-23T09:16:24.142Z,18.3
2022-09-23T09:21:29.253Z,19.5
2022-09-23T09:26:35.405Z,20.5
2022-09-23T09:31:41.652Z,20.1
2022-09-23T09:36:47.566Z,20.5
2022-09-23T09:41:53.645Z,21.5
2022-09-23T09:46:59.745Z,21
2022-09-23T09:52:05.841Z,21.3
2022-09-23T09:57:10.911Z,22.2
2022-09-23T10:02:16.001Z,22.8
2022-09-23T10:07:22.092Z,22.9
2022-09-23T10:12:28.189Z,22.6
2022-09-23T10:17:34.271Z,23
2022-09-23T10:22:40.370Z,23.3
2022-09-23T10:27:46.528Z,23.3
2022-09-23T10:32:52.562Z,22.7
2022-09-23T10:37:58.653Z,23.1
2022-09-23T10:43:04.763Z,22.7
2022-09-23T10:48:10.851Z,23.6
2022-09-23T10:53:16.941Z,24.1
2022-09-23T10:58:23.052Z,25.2
2022-09-23T11:03:29.141Z,25.8
2022-09-23T11:08:34.240Z,25
2022-09-23T11:13:40.339Z,23.9
2022-09-23T11:18:46.449Z,24.6
2022-09-23T11:23:52.546Z,23.7
2022-09-23T11:28:58.651Z,24.1
2022-09-23T11:34:04.733Z,23.2
2022-09-23T11:39:10.824Z,23.2
2022-09-23T11:44:15.944Z,21.4
2022-09-23T11:49:21.045Z,20.2
2022-09-23T11:54:26.171Z,19.6
2022-09-23T11:59:31.404Z,19.1
2022-09-23T12:04:37.376Z,19
2022-09-23T12:09:43.465Z,19.1
2022-09-23T12:14:49.569Z,19.5
2022-09-23T12:19:55.675Z,19.7
2022-09-23T12:25:01.848Z,19.6
2022-09-23T12:30:07.965Z,19.7
2022-09-23T12:35:14.040Z,19.8
2022-09-23T12:40:20.156Z,19.8
2022-09-23T12:45:26.143Z,19.7
2022-09-23T12:50:32.381Z,19.5
2022-09-23T12:55:38.454Z,19.5
2022-09-23T13:00:44.419Z,19.5
2022-09-23T13:05:50.669Z,19.5
2022-09-23T13:10:55.793Z,19.6
2022-09-23T13:16:01.725Z,19.6
2022-09-23T13:21:07.957Z,19.4
2022-09-23T13:26:14.046Z,19.2
2022-09-23T13:31:20.005Z,19.3
2022-09-23T13:36:26.232Z,19.1
2022-09-23T13:41:31.378Z,19.1
2022-09-23T13:46:36.466Z,19.4
2022-09-23T13:51:41.559Z,19.5
2022-09-23T13:56:46.691Z,19.5
2022-09-23T14:01:52.790Z,19.5
2022-09-23T14:06:57.905Z,19.4
2022-09-23T14:12:03.021Z,19.4
2022-09-23T14:17:09.101Z,19.1
2022-09-23T14:22:15.213Z,18.9
2022-09-23T14:27:21.315Z,18.7
2022-09-23T14:32:27.396Z,18.7
2022-09-23T14:37:33.534Z,18.9
2022-09-23T14:42:39.577Z,19.3
2022-09-23T14:47:45.678Z,20.5
2022-09-23T14:52:51.766Z,21.4
2022-09-23T14:57:57.715Z,22.4
2022-09-23T15:03:03.940Z,22
2022-09-23T15:08:10.038Z,20.9
2022-09-23T15:13:16.155Z,20
2022-09-23T15:18:21.148Z,19.5
2022-09-23T15:23:27.378Z,19.2
2022-09-23T15:28:33.313Z,19
2022-09-23T15:33:39.542Z,18.8
2022-09-23T15:38:45.644Z,18.6
2022-09-23T15:43:51.738Z,18.5
2022-09-23T15:48:57.809Z,18.4
2022-09-23T15:54:02.958Z,18.2
2022-09-23T15:59:08.044Z,17.9
2022-09-23T16:04:13.116Z,17.7
2022-09-23T16:09:18.262Z,17.3
2022-09-23T16:14:24.276Z,17
2022-09-23T16:19:30.378Z,16.8
2022-09-23T16:24:36.427Z,16.5
2022-09-23T16:29:42.652Z,16.3
2022-09-23T16:34:48.655Z,16.1
2022-09-23T16:39:54.704Z,15.7
2022-09-23T16:44:59.935Z,15.4
2022-09-23T16:50:05.918Z,15
2022-09-23T16:55:12.062Z,14.7
2022-09-23T17:00:18.196Z,14.4
2022-09-23T17:05:24.242Z,14.1
2022-09-23T17:10:30.371Z,13.9
2022-09-23T17:15:36.393Z,13.7
2022-09-23T17:20:42.477Z,13.4
2022-09-23T17:25:48.571Z,13.3
2022-09-23T17:30:54.678Z,13.1
2022-09-23T17:36:00.769Z,13
2022-09-23T17:41:06.958Z,12.8
2022-09-23T17:46:12.960Z,12.8
2022-09-23T17:51:18.177Z,12.7
2022-09-23T17:56:23.197Z,12.5
2022-09-23T18:01:29.322Z,12.4
2022-09-23T18:06:34.403Z,12.3
2022-09-23T18:11:39.511Z,12.2
2022-09-23T18:16:45.622Z,12.1
2022-09-23T18:21:51.704Z,12
2022-09-23T18:26:57.797Z,11.9
2022-09-23T18:32:03.903Z,11.7
2022-09-23T18:37:10.089Z,11.6
2022-09-23T18:42:16.080Z,11.5
2022-09-23T18:47:22.176Z,11.4
2022-09-23T18:52:28.266Z,11.4
2022-09-23T18:57:34.399Z,11.4
2022-09-23T19:02:40.482Z,11.4
2022-09-23T19:07:46.548Z,11.4
2022-09-23T19:12:52.652Z,11.5
2022-09-23T19:17:57.749Z,11.5
2022-09-23T19:23:03.861Z,11.5
2022-09-23T19:28:09.941Z,11.5
2022-09-23T19:33:16.060Z,11.5
2022-09-23T19:38:22.194Z,11.6
2022-09-23T19:43:28.304Z,11.5
2022-09-23T19:48:34.344Z,11.5
2022-09-23T19:53:39.441Z,11.5
2022-09-23T19:58:44.546Z,11.6
2022-09-23T20:03:50.666Z,11.6
2022-09-23T20:08:56.769Z,11.6
2022-09-23T20:14:02.840Z,11.6
2022-09-23T20:19:09.021Z,11.6
2022-09-23T20:24:15.123Z,11.5
2022-09-23T20:29:21.158Z,11.5
2022-09-23T20:34:27.260Z,11.5
2022-09-23T20:39:33.365Z,11.5
2022-09-23T20:44:39.422Z,11.5
2022-09-23T20:49:45.529Z,11.4
2022-09-23T20:54:51.643Z,11.4
2022-09-23T20:59:57.694Z,11.3
2022-09-23T21:05:02.855Z,11.3
2022-09-23T21:10:08.914Z,11.3
2022-09-23T21:15:14.994Z,11.3
2022-09-23T21:20:21.113Z,11.4
2022-09-23T21:25:27.193Z,11.4
2022-09-23T21:30:33.277Z,11.4
2022-09-23T21:35:39.396Z,11.4
2022-09-23T21:40:44.625Z,11.5
2022-09-23T21:45:49.649Z,11.4
2022-09-23T21:50:54.740Z,11.3
2022-09-23T21:55:59.837Z,11.2
2022-09-23T22:01:04.959Z,11.1
2022-09-23T22:06:10.120Z,11.1
2022-09-23T22:11:16.159Z,11
2022-09-23T22:16:22.259Z,10.9
2022-09-23T22:21:28.354Z,10.7
2022-09-23T22:26:34.453Z,10.7
2022-09-23T22:31:40.538Z,10.7
2022-09-23T22:36:46.662Z,10.6
2022-09-23T22:41:52.735Z,10.6
2022-09-23T22:46:58.840Z,10.5
2022-09-23T22:52:04.949Z,10.5
2022-09-23T22:57:11.057Z,10.4
2022-09-23T23:02:17.113Z,10.4
2022-09-23T23:07:23.223Z,10.4
2022-09-23T23:12:28.383Z,10.3
2022-09-23T23:17:34.424Z,10.3
2022-09-23T23:22:40.545Z,10.3
2022-09-23T23:27:46.620Z,10.2
2022-09-23T23:32:52.742Z,10
2022-09-23T23:43:04.915Z,9.8
2022-09-23T23:48:10.983Z,9.7
2022-09-23T23:53:16.126Z,9.7
2022-09-23T23:58:21.219Z,9.7
